ADDS METAR Data INFO
IDs: Format: Raw Decoded Include TAF

Data at: 0717 UTC 24 Jun 2018

KFZY 240654Z AUTO 00000KT 10SM OVC007 17/13 A2976 RMK AO2 SLP076 T01670133
KFZY 240554Z AUTO 36003KT 10SM BKN007 OVC010 17/14 A2976 RMK AO2 CIG 004V009 SLP075 60000 T01670139 10178 20161 50001
KFZY 240537Z AUTO 00000KT 10SM BKN010 OVC014 17/14 A2976 RMK AO2 CIG 009V013 T01670139
KFZY 240454Z AUTO 00000KT 10SM BKN021 OVC060 16/14 A2976 RMK AO2 SLP076 T01610139 402170161
KFZY 240449Z AUTO 00000KT 10SM BKN021 BKN060 16/14 A2975 RMK AO2
KFZY 240354Z AUTO 13003KT 10SM BKN042 16/13 A2975 RMK AO2 SLP074 T01610133
KFZY 240254Z AUTO VRB04KT 10SM FEW028 BKN048 OVC070 17/13 A2975 RMK AO2 SLP073 60000 T01670128 50004
KFZY 240154Z AUTO 14005KT 10SM BKN060 BKN075 OVC110 17/13 A2975 RMK AO2 RAB05E45 SLP075 P0000 T01670133
KFZY 240054Z AUTO VRB03KT 10SM OVC050 18/13 A2974 RMK AO2 SLP071 T01780128
KFZY 232354Z AUTO 00000KT 10SM BKN044 OVC050 19/13 A2974 RMK AO2 SLP069 T01890133 10217 20189 55005
KFZY 232254Z AUTO VRB04KT 10SM OVC041 19/13 A2973 RMK AO2 SLP065 T01940133
KFZY 232154Z AUTO 00000KT 10SM BKN033 OVC055 21/14 A2974 RMK AO2 SLP070 T02060139
KFZY 232054Z AUTO VRB04KT 10SM OVC032 20/14 A2975 RMK AO2 SLP073 T02000139 56009
KFZY 232047Z AUTO VRB04KT 10SM OVC030 20/14 A2975 RMK AO2 T02000139
KFZY 232004Z AUTO VRB05KT 10SM BKN026 OVC037 20/14 A2976 RMK AO2 T02000139
KFZY 231954Z AUTO VRB05KT 10SM SCT026 OVC037 21/14 A2976 RMK AO2 SLP075 T02060139
KFZY 231919Z AUTO VRB06KT 10SM FEW021 SCT027 BKN035 21/14 A2976 RMK AO2 T02060139
KFZY 231854Z AUTO VRB06KT 10SM BKN029 OVC035 22/14 A2977 RMK AO2 SLP078 T02170144
KFZY 231754Z AUTO 15007KT 110V180 10SM BKN028 BKN120 20/13 A2978 RMK AO2 SLP083 60001 T02000133 10206 20172 58015
KFZY 231654Z AUTO VRB05G15KT 10SM FEW018 OVC026 19/13 A2980 RMK AO2 RAB1557E07 SLP090 P0000 T01890128
KFZY 231630Z AUTO 13007KT 090V170 10SM FEW022 BKN027 OVC110 19/13 A2981 RMK AO2 RAB1557E07 P0000 T01890128
KFZY 231554Z AUTO VRB05KT 10SM BKN041 BKN070 OVC110 19/13 A2982 RMK AO2 SLP094 T01890128
KFZY 231454Z AUTO VRB05KT 10SM SCT033 BKN065 OVC075 19/12 A2983 RMK AO2 RAE08 SLP098 P0000 60001 T01890122 56009
KFZY 231354Z AUTO 12008KT 080V150 10SM -RA BKN034 17/12 A2983 RMK AO2 RAB06E30B49 SLP101 P0001 T01720122
KFZY 231254Z AUTO VRB05KT 10SM SCT034 OVC055 17/12 A2984 RMK AO2 RAE1156B34E45 SLP103 P0000 T01720122
KFZY 231154Z AUTO VRB03KT 9SM -RA OVC042 17/12 A2985 RMK AO2 RAB27 SLP107 P0000 60000 70005 T01720122 10183 20172 58006
KFZY 231054Z AUTO 00000KT 10SM FEW040 OVC055 18/13 A2986 RMK AO2 RAB17E29 SLP110 P0000 T01780133
KFZY 230954Z AUTO 00000KT 10SM OVC065 18/13 A2987 RMK AO2 SLP111 T01780133
KFZY 230854Z AUTO 00000KT 10SM OVC070 18/13 A2987 RMK AO2 SLP112 T01780133 56017
KFZY 230754Z AUTO 00000KT 10SM OVC075 18/14 A2989 RMK AO2 SLP118 T01780144
KFZY 230654Z AUTO 07003KT 10SM OVC075 18/14 A2990 RMK AO2 SLP121 T01780144
KFZY 230554Z AUTO 00000KT 10SM OVC080 18/15 A2992 RMK AO2 SLP129 60005 T01780150 10233 20178 58006
KFZY 230454Z AUTO 00000KT 10SM OVC090 18/15 A2993 RMK AO2 RAE04B29E41 SLP132 P0000 T01830150 402670061
KFZY 230354Z AUTO VRB03KT 10SM -RA FEW029 BKN038 OVC110 19/15 A2994 RMK AO2 SLP136 P0005 T01890150
KFZY 230254Z AUTO VRB03KT 10SM -RA BKN060 BKN110 22/13 A2994 RMK AO2 RAB48 SLP136 P0000 60000 T02170128 53007
KFZY 230154Z AUTO 00000KT 10SM BKN060 22/13 A2993 RMK AO2 SLP134 T02170133
KFZY 230054Z AUTO 00000KT 10SM CLR 21/13 A2991 RMK AO2 SLP127 T02110128
KFZY 222354Z AUTO 14003KT 10SM CLR 23/13 A2992 RMK AO2 SLP128 T02330128 10267 20233 56002
KFZY 222254Z AUTO 00000KT 10SM CLR 24/14 A2992 RMK AO2 SLP130 T02440139
KFZY 222154Z AUTO 00000KT 10SM CLR 25/13 A2992 RMK AO2 SLP130 T02500128
KFZY 222054Z AUTO 05003KT 10SM CLR 26/13 A2992 RMK AO2 SLP132 T02560128 58015
KFZY 221954Z AUTO VRB05KT 10SM CLR 26/11 A2994 RMK AO2 SLP136 T02560111